Norwalk, Connecticut
Current Conditions -  °F | °C
As of 4:52 PM on Monday 20 Oct 2014 (Local Time) from KBDR Reporting Station
Clear Clear  
Wind Chill: 16°   Ceiling: Unl
Heat Index: 16°   Visibility: 10mi
Dew Point:   Wind: 15mph
Humidity: 46%   Direction: 220°SW
Pressure: 29.99"   Gusts: NA
Location:  41.11°N, 73.41°W
Report Text: KBDR 202052Z 22013KT 10SM CLR 16/04 A2999 RMK AO2 SLP156 T01560039 56019
Loading
Personal Weather Stations






























Interactive Weather Map
Tropical Storm Tracking
New forecast layout! Learn more

10-Day Weather Forecast

Advertisements
Track Severe Weather on mobile